METAR AND TAF INFORMATION
METAR FOR LLBG
LLBG 221150Z 29012KT CAVOK 29/19 Q1011 NOSIG
LLBG 221120Z 28010KT CAVOK 30/18 Q1011 NOSIG
LLBG 221050Z 28013KT CAVOK 30/18 Q1012 NOSIG
LLBG 221020Z 28012KT CAVOK 31/16 Q1012 NOSIG
LLBG 220950Z 28010KT 240V310 CAVOK 31/17 Q1012 NOSIG
LLBG 220920Z 27009KT 240V300 9999 FEW022 30/18 Q1012 NOSIG
LLBG 220850Z 28005KT 230V340 CAVOK 30/17 Q1012 NOSIG

TAF LLBG 221111Z 2212/2312 29010KT CAVOK
BECMG 2215/2217 VRB04KT
PROB30
TEMPO 2301/2305 8000 SCT010
BECMG 2307/2309 27010KT TX32/2212Z TN21/2303Z

 AIRPORT MAP

 RUNWAY INFORMATION
Runway 03 Runway length 9094 ft Runway width 148 ft
Runway elevation 129 ft Runway displaced threshold 0 ft Runway heading 29
Runway 21 Runway length 9094 ft Runway width 148 ft
Runway elevation 134 ft Runway displaced threshold 0 ft Runway heading 209
Runway 08 Runway length 13327 ft Runway width 148 ft
Runway elevation 97 ft Runway displaced threshold 0 ft Runway heading 80
Runway 26 Runway length 13327 ft Runway width 148 ft
Runway elevation 124 ft Runway displaced threshold 1969 ft Runway heading 260
Runway 12 Runway length 10209 ft Runway width 148 ft
Runway elevation 112 ft Runway displaced threshold 0 ft Runway heading 121
Runway 30 Runway length 10209 ft Runway width 148 ft
Runway elevation 130 ft Runway displaced threshold 246 ft Runway heading 301

 AIRPORT FREQUENCIES
Type APP Name Ben Gurion Frequency 120.5 MHZ
Type ATIS Name ATIS Frequency 132.5 MHZ
Type CLD Name CLNC DEL Frequency 119.35 MHZ
Type GND Name GND EAST Frequency 129.2 MHZ
Type GND Name GND WEST Frequency 118.05 MHZ
Type MISC Name VOLMET Frequency 126.8 MHZ
Type TMA Name Ben Gurion Frequency 119.5 MHZ
Type TWR Name Ben Gurion Frequency 134.6 MHZ
Type TWR Name Ben Gurion Frequency 132.1 MHZ

 AIRPORT NEAR NAVIGATION AIDS
Type VOR-DME Name Ben Gurion Frequency 113500 KHZ
Type NDB Name Tel Aviv Frequency 331 KHZ

-